Time;durP1;ratioP1;P1;durP2;ratioP2;P2;SDS_P1;SDS_P2;PMS_P1;PMS_P2;Temp;Humidity;BMP_temperature;BMP_pressure;BME280_temperature;BME280_humidity;BME280_pressure;Samples;Min_cycle;Max_cycle;Signal;HPM_P1;HPM_P2
2023/02/24 00:00:32;;;;;;;4.80;4.50;;;;;;;;;;6209533;28;20289;-80
2023/02/24 00:03:37;;;;;;;4.67;4.47;;;;;;;;;;6209796;28;20306;-80
2023/02/24 00:06:44;;;;;;;4.33;4.13;;;;;;;;;;6210664;28;20304;-79
2023/02/24 00:09:49;;;;;;;4.60;4.20;;;;;;;;;;6210138;28;20304;-80
2023/02/24 00:12:56;;;;;;;4.97;4.57;;;;;;;;;;6189724;28;20296;-79
2023/02/24 00:16:02;;;;;;;4.70;4.40;;;;;;;;;;6185548;28;20296;-80
2023/02/24 00:19:07;;;;;;;5.10;4.80;;;;;;;;;;6185876;28;20302;-80
2023/02/24 00:22:12;;;;;;;4.60;4.40;;;;;;;;;;6186240;28;20294;-80
2023/02/24 00:25:18;;;;;;;4.20;3.93;;;;;;;;;;6184046;28;20309;-80
2023/02/24 00:28:24;;;;;;;4.57;4.27;;;;;;;;;;6184465;28;20297;-79
2023/02/24 00:31:30;;;;;;;4.83;4.63;;;;;;;;;;6184752;28;20442;-79
2023/02/24 00:34:37;;;;;;;4.73;4.53;;;;;;;;;;6185746;28;20583;-80
2023/02/24 00:37:42;;;;;;;5.27;4.87;;;;;;;;;;6208630;28;20300;-80
2023/02/24 00:40:47;;;;;;;5.07;4.77;;;;;;;;;;6209417;28;20658;-80
2023/02/24 00:43:53;;;;;;;5.60;5.10;;;;;;;;;;6197456;28;20327;-79
2023/02/24 00:46:59;;;;;;;5.63;5.23;;;;;;;;;;6209457;28;20458;-80
2023/02/24 00:50:05;;;;;;;4.80;4.57;;;;;;;;;;6209015;28;20304;-81
2023/02/24 00:53:13;;;;;;;5.07;4.67;;;;;;;;;;6208358;28;20293;-79
2023/02/24 00:56:19;;;;;;;4.93;4.60;;;;;;;;;;6209789;28;20297;-79
2023/02/24 00:59:27;;;;;;;4.73;4.43;;;;;;;;;;6207883;28;20472;-80
2023/02/24 01:02:33;;;;;;;5.53;5.07;;;;;;;;;;6209376;28;20315;-80
2023/02/24 01:05:38;;;;;;;3.70;3.60;;;;;;;;;;6175261;28;20291;-79
2023/02/24 01:08:46;;;;;;;3.90;3.70;;;;;;;;;;6154430;28;22549;-80
2023/02/24 01:15:16;;;;;;;4.07;3.77;;;;;;;;;;6160494;28;20307;-80
2023/02/24 01:18:22;;;;;;;5.20;4.60;;;;;;;;;;6159269;29;20486;-79
2023/02/24 01:21:27;;;;;;;4.50;4.30;;;;;;;;;;6159692;28;20297;-80
2023/02/24 01:24:34;;;;;;;4.87;4.57;;;;;;;;;;6160174;28;20359;-80
2023/02/24 01:27:40;;;;;;;5.70;5.13;;;;;;;;;;6160631;28;20318;-80
2023/02/24 01:30:46;;;;;;;6.37;5.50;;;;;;;;;;6158549;28;20239;-78
2023/02/24 01:33:52;;;;;;;5.17;4.87;;;;;;;;;;6160277;28;20384;-80
2023/02/24 01:36:58;;;;;;;4.77;4.47;;;;;;;;;;6181536;28;20294;-80
2023/02/24 01:40:10;;;;;;;4.70;4.40;;;;;;;;;;6187163;28;20621;-80
2023/02/24 01:43:15;;;;;;;4.80;4.50;;;;;;;;;;6204257;28;20397;-79
2023/02/24 01:46:22;;;;;;;5.10;4.67;;;;;;;;;;6187891;28;20309;-80
2023/02/24 01:49:33;;;;;;;4.70;4.30;;;;;;;;;;6185691;28;20324;-81
2023/02/24 01:52:38;;;;;;;4.13;3.83;;;;;;;;;;6189052;28;20273;-80
2023/02/24 01:55:48;;;;;;;4.47;4.27;;;;;;;;;;6186615;28;20298;-79
2023/02/24 01:58:53;;;;;;;5.17;4.77;;;;;;;;;;6202902;28;20576;-80
2023/02/24 02:02:04;;;;;;;5.57;4.40;;;;;;;;;;6188535;28;20300;-80
2023/02/24 02:05:13;;;;;;;4.00;3.83;;;;;;;;;;6186628;23;20400;-77
2023/02/24 02:08:19;;;;;;;5.27;4.87;;;;;;;;;;6147042;29;20306;-77
2023/02/24 02:11:26;;;;;;;4.40;4.00;;;;;;;;;;6154779;28;20300;-77
2023/02/24 02:14:33;;;;;;;3.53;3.40;;;;;;;;;;6178659;28;20301;-77
2023/02/24 02:17:47;;;;;;;3.30;3.20;;;;;;;;;;6164535;29;20299;-77
2023/02/24 02:21:08;;;;;;;3.30;3.00;;;;;;;;;;6163838;29;20301;-77
2023/02/24 02:24:35;;;;;;;3.30;3.20;;;;;;;;;;6154164;28;20574;-77
2023/02/24 02:28:12;;;;;;;3.33;3.23;;;;;;;;;;6140196;29;20302;-78
2023/02/24 02:31:38;;;;;;;3.07;3.00;;;;;;;;;;6133251;29;20299;-77
2023/02/24 02:34:50;;;;;;;2.97;2.87;;;;;;;;;;6161626;29;20295;-77
2023/02/24 02:38:07;;;;;;;3.50;3.40;;;;;;;;;;6150561;28;20481;-77
2023/02/24 02:41:18;;;;;;;3.40;3.30;;;;;;;;;;6178852;28;20310;-78
2023/02/24 02:44:31;;;;;;;3.50;3.40;;;;;;;;;;6162581;28;20343;-78
2023/02/24 02:47:40;;;;;;;4.33;4.03;;;;;;;;;;6173844;28;20360;-78
2023/02/24 02:50:49;;;;;;;3.73;3.63;;;;;;;;;;6185243;28;20298;-78
2023/02/24 02:54:01;;;;;;;3.50;3.40;;;;;;;;;;6156439;29;20310;-78
2023/02/24 02:57:11;;;;;;;3.07;2.97;;;;;;;;;;6200057;28;20313;-77
2023/02/24 03:00:20;;;;;;;2.97;2.87;;;;;;;;;;6193900;28;20389;-77
2023/02/24 03:03:27;;;;;;;3.73;3.53;;;;;;;;;;6205503;28;20320;-78
2023/02/24 03:06:36;;;;;;;3.40;3.30;;;;;;;;;;6169821;28;20492;-78
2023/02/24 03:09:44;;;;;;;3.97;3.87;;;;;;;;;;6186800;28;20691;-78
2023/02/24 03:12:52;;;;;;;4.53;4.27;;;;;;;;;;6185935;28;20297;-76
2023/02/24 03:16:01;;;;;;;4.30;4.03;;;;;;;;;;6186593;28;20246;-77
2023/02/24 03:19:09;;;;;;;4.70;4.50;;;;;;;;;;6185101;28;20294;-78
2023/02/24 03:22:19;;;;;;;4.10;3.90;;;;;;;;;;6201739;28;20300;-76
2023/02/24 03:25:29;;;;;;;4.30;4.10;;;;;;;;;;6183846;28;20334;-77
2023/02/24 03:28:37;;;;;;;4.10;3.90;;;;;;;;;;6184502;28;20272;-77
2023/02/24 03:31:47;;;;;;;4.83;3.80;;;;;;;;;;6184837;28;20296;-78
2023/02/24 03:34:56;;;;;;;4.03;3.83;;;;;;;;;;6200349;28;20301;-77
2023/02/24 03:38:05;;;;;;;3.93;3.73;;;;;;;;;;6201216;28;20294;-76
2023/02/24 03:41:12;;;;;;;4.63;4.03;;;;;;;;;;6200556;28;20305;-77
2023/02/24 03:44:18;;;;;;;5.30;4.90;;;;;;;;;;6184607;28;20301;-77
2023/02/24 03:47:23;;;;;;;4.57;4.23;;;;;;;;;;6200946;28;20293;-77
2023/02/24 03:50:30;;;;;;;4.70;4.40;;;;;;;;;;6200549;28;20304;-77
2023/02/24 03:53:47;;;;;;;4.10;4.00;;;;;;;;;;6200421;28;20611;-78
2023/02/24 03:57:02;;;;;;;4.40;4.20;;;;;;;;;;6200900;28;20560;-77
2023/02/24 04:00:21;;;;;;;4.83;4.40;;;;;;;;;;6185823;28;20293;-79
2023/02/24 04:03:35;;;;;;;4.53;4.23;;;;;;;;;;6179223;28;20316;-78
2023/02/24 04:06:58;;;;;;;4.03;3.83;;;;;;;;;;6184652;28;20337;-78
2023/02/24 04:10:09;;;;;;;4.17;3.87;;;;;;;;;;6184262;28;20430;-77
2023/02/24 04:13:23;;;;;;;4.00;3.70;;;;;;;;;;6200210;28;20305;-79
2023/02/24 04:16:35;;;;;;;3.13;3.03;;;;;;;;;;6182951;28;20316;-79
2023/02/24 04:19:43;;;;;;;3.30;3.10;;;;;;;;;;6182607;28;20306;-78
2023/02/24 04:22:51;;;;;;;3.43;3.33;;;;;;;;;;6185191;28;20315;-77
2023/02/24 04:25:58;;;;;;;4.50;4.30;;;;;;;;;;6182754;28;20302;-78
2023/02/24 04:29:05;;;;;;;4.47;4.20;;;;;;;;;;6183482;28;20317;-78
2023/02/24 04:32:14;;;;;;;3.50;3.40;;;;;;;;;;6199537;28;20317;-78
2023/02/24 04:35:21;;;;;;;3.33;3.23;;;;;;;;;;6183967;28;20297;-77
2023/02/24 04:38:28;;;;;;;3.40;3.30;;;;;;;;;;6199333;28;20312;-77
2023/02/24 04:41:35;;;;;;;3.83;3.57;;;;;;;;;;6200313;28;20443;-77
2023/02/24 04:44:41;;;;;;;3.47;3.43;;;;;;;;;;6184590;28;20305;-78
2023/02/24 04:47:49;;;;;;;3.60;3.50;;;;;;;;;;6184993;28;20297;-77
2023/02/24 04:50:56;;;;;;;3.70;3.60;;;;;;;;;;6184257;28;20306;-78
2023/02/24 04:54:03;;;;;;;4.93;4.63;;;;;;;;;;6199304;28;20294;-77
2023/02/24 04:57:11;;;;;;;4.60;4.30;;;;;;;;;;6185090;28;20468;-77
2023/02/24 05:00:22;;;;;;;4.63;4.33;;;;;;;;;;6184610;28;20298;-76
2023/02/24 05:03:28;;;;;;;4.63;4.33;;;;;;;;;;6184446;28;20312;-78
2023/02/24 05:06:34;;;;;;;4.70;4.40;;;;;;;;;;6199915;28;20297;-77
2023/02/24 05:09:39;;;;;;;4.67;4.27;;;;;;;;;;6184362;28;20297;-77
2023/02/24 05:12:46;;;;;;;4.27;3.97;;;;;;;;;;6185622;28;20285;-78
2023/02/24 05:15:51;;;;;;;4.33;4.13;;;;;;;;;;6189174;28;20332;-77
2023/02/24 05:22:16;;;;;;;4.47;4.17;;;;;;;;;;6188337;28;20297;-77
2023/02/24 05:25:24;;;;;;;5.00;4.70;;;;;;;;;;6202603;28;20629;-77
2023/02/24 05:28:30;;;;;;;4.00;3.80;;;;;;;;;;6187589;28;20283;-78
2023/02/24 05:31:36;;;;;;;4.30;4.10;;;;;;;;;;6186664;28;20312;-77
2023/02/24 05:34:41;;;;;;;5.07;4.67;;;;;;;;;;6188944;28;20329;-77
2023/02/24 05:37:47;;;;;;;4.37;4.17;;;;;;;;;;6188826;28;20293;-79
2023/02/24 05:40:56;;;;;;;5.07;4.60;;;;;;;;;;6188715;28;20314;-79
2023/02/24 05:44:07;;;;;;;4.60;4.30;;;;;;;;;;6189021;28;20323;-77
2023/02/24 05:47:12;;;;;;;4.63;4.33;;;;;;;;;;6189111;28;20377;-78
2023/02/24 05:50:25;;;;;;;4.43;4.17;;;;;;;;;;6187896;28;20298;-78
2023/02/24 05:53:30;;;;;;;4.57;4.13;;;;;;;;;;6187043;28;20301;-77
2023/02/24 05:56:37;;;;;;;5.07;4.77;;;;;;;;;;6188749;28;20306;-77
2023/02/24 05:59:44;;;;;;;4.00;3.70;;;;;;;;;;6188251;28;20297;-77
2023/02/24 06:02:50;;;;;;;3.70;3.50;;;;;;;;;;6189217;28;20299;-78
2023/02/24 06:05:58;;;;;;;3.63;3.43;;;;;;;;;;6188436;28;20302;-79
2023/02/24 06:09:07;;;;;;;3.87;3.40;;;;;;;;;;6188309;28;20622;-78
2023/02/24 06:12:14;;;;;;;4.40;3.07;;;;;;;;;;6188411;28;20435;-77
2023/02/24 06:15:20;;;;;;;3.47;3.37;;;;;;;;;;6188005;28;20440;-77
2023/02/24 06:18:26;;;;;;;3.30;3.20;;;;;;;;;;6204130;28;20296;-77
2023/02/24 06:21:31;;;;;;;3.83;3.53;;;;;;;;;;6187276;28;20491;-78
2023/02/24 06:24:36;;;;;;;3.50;3.40;;;;;;;;;;6201932;28;20359;-78
2023/02/24 06:27:42;;;;;;;3.47;3.30;;;;;;;;;;6188294;28;20459;-77
2023/02/24 06:30:49;;;;;;;3.63;3.43;;;;;;;;;;6187814;28;20594;-78
2023/02/24 06:33:55;;;;;;;4.23;3.93;;;;;;;;;;6187684;28;20471;-78
2023/02/24 06:37:00;;;;;;;3.23;3.13;;;;;;;;;;6188353;28;20299;-78
2023/02/24 06:40:14;;;;;;;6.30;3.47;;;;;;;;;;6186588;28;20309;-78
2023/02/24 06:43:19;;;;;;;3.10;3.00;;;;;;;;;;6188028;28;20293;-77
2023/02/24 06:46:28;;;;;;;3.37;3.17;;;;;;;;;;6186459;28;20288;-77
2023/02/24 06:49:34;;;;;;;3.83;3.53;;;;;;;;;;6186906;28;20331;-77
2023/02/24 06:52:39;;;;;;;2.73;2.73;;;;;;;;;;6186566;28;20350;-77
2023/02/24 06:55:47;;;;;;;2.60;2.50;;;;;;;;;;6187431;28;20298;-76
2023/02/24 06:58:55;;;;;;;3.17;2.60;;;;;;;;;;6187589;28;20298;-78
2023/02/24 07:02:02;;;;;;;3.73;3.10;;;;;;;;;;6202704;28;20302;-78
2023/02/24 07:05:13;;;;;;;2.57;2.50;;;;;;;;;;6186691;28;20298;-77
2023/02/24 07:08:19;;;;;;;3.03;2.77;;;;;;;;;;6187603;28;20290;-80
2023/02/24 07:11:25;;;;;;;2.77;2.67;;;;;;;;;;6184533;28;20293;-78
2023/02/24 07:14:31;;;;;;;3.20;2.97;;;;;;;;;;6201424;28;20317;-79
2023/02/24 07:17:38;;;;;;;2.33;2.20;;;;;;;;;;6186129;28;20564;-77
2023/02/24 07:20:46;;;;;;;2.40;2.40;;;;;;;;;;6187402;28;20385;-78
2023/02/24 07:23:55;;;;;;;2.47;2.47;;;;;;;;;;6186865;28;20290;-78
2023/02/24 07:27:04;;;;;;;2.60;2.40;;;;;;;;;;6202529;28;20294;-77
2023/02/24 07:30:11;;;;;;;2.37;2.27;;;;;;;;;;6186473;28;20298;-77
2023/02/24 07:33:18;;;;;;;2.77;2.30;;;;;;;;;;6186965;28;20291;-78
2023/02/24 07:36:28;;;;;;;2.20;2.10;;;;;;;;;;6185149;28;20564;-77
2023/02/24 07:39:35;;;;;;;2.40;2.30;;;;;;;;;;6186958;28;20453;-78
2023/02/24 07:42:46;;;;;;;2.43;2.10;;;;;;;;;;6185730;28;20314;-77
2023/02/24 07:46:07;;;;;;;2.43;2.33;;;;;;;;;;6199597;28;20301;-77
2023/02/24 07:49:17;;;;;;;2.17;2.17;;;;;;;;;;6186158;28;20305;-77
2023/02/24 07:52:23;;;;;;;2.30;2.30;;;;;;;;;;6200568;28;20347;-78
2023/02/24 07:55:31;;;;;;;2.30;2.30;;;;;;;;;;6186089;28;20298;-77
2023/02/24 07:58:38;;;;;;;2.37;2.37;;;;;;;;;;6200502;28;20277;-77
2023/02/24 08:01:49;;;;;;;2.60;2.50;;;;;;;;;;6185808;28;20295;-77
2023/02/24 08:04:55;;;;;;;2.13;2.13;;;;;;;;;;6185411;28;20309;-78
2023/02/24 08:08:02;;;;;;;2.23;2.03;;;;;;;;;;6185955;28;20463;-78
2023/02/24 08:11:09;;;;;;;2.33;2.23;;;;;;;;;;6185513;28;20373;-77
2023/02/24 08:14:15;;;;;;;3.13;2.93;;;;;;;;;;6185785;28;20306;-78
2023/02/24 08:17:22;;;;;;;2.23;2.23;;;;;;;;;;6184511;28;20301;-78
2023/02/24 08:20:34;;;;;;;1.80;1.80;;;;;;;;;;6185735;28;20289;-78
2023/02/24 08:23:43;;;;;;;1.70;1.70;;;;;;;;;;6185521;28;20345;-77
2023/02/24 08:27:03;;;;;;;3.90;2.47;;;;;;;;;;6186392;28;20299;-78
2023/02/24 08:30:22;;;;;;;2.73;2.27;;;;;;;;;;6185958;28;20291;-78
2023/02/24 08:33:28;;;;;;;2.00;2.00;;;;;;;;;;6185515;28;20305;-78
2023/02/24 08:36:35;;;;;;;2.00;2.00;;;;;;;;;;6185578;28;20306;-77
2023/02/24 08:39:42;;;;;;;2.13;2.10;;;;;;;;;;6184311;28;20300;-77
2023/02/24 08:42:48;;;;;;;3.37;2.10;;;;;;;;;;6185673;28;20294;-79
2023/02/24 08:45:58;;;;;;;2.07;2.07;;;;;;;;;;6185529;28;20300;-78
2023/02/24 08:49:09;;;;;;;2.00;2.00;;;;;;;;;;6184230;28;20302;-77
2023/02/24 08:52:22;;;;;;;1.87;1.87;;;;;;;;;;6184802;28;20313;-78
2023/02/24 08:55:31;;;;;;;2.30;1.90;;;;;;;;;;6182329;28;20303;-77
2023/02/24 08:58:45;;;;;;;1.90;1.90;;;;;;;;;;6168129;28;20404;-78
2023/02/24 09:02:13;;;;;;;2.63;2.43;;;;;;;;;;6185519;28;20302;-78
2023/02/24 09:05:17;;;;;;;2.03;1.93;;;;;;;;;;6184312;28;20294;-77
2023/02/24 09:08:31;;;;;;;2.00;2.00;;;;;;;;;;6167961;28;20304;-77
2023/02/24 09:11:42;;;;;;;1.93;1.93;;;;;;;;;;6184632;28;20309;-77
2023/02/24 09:14:48;;;;;;;1.93;1.93;;;;;;;;;;6185299;28;20298;-78
2023/02/24 09:18:06;;;;;;;3.40;2.23;;;;;;;;;;6202066;28;20293;-79
2023/02/24 09:24:36;;;;;;;35.87;13.23;;;;;;;;;;6184861;28;20298;-79
2023/02/24 09:27:42;;;;;;;8.50;6.10;;;;;;;;;;6184563;28;20329;-78
2023/02/24 09:30:53;;;;;;;2.43;2.30;;;;;;;;;;6185066;28;20300;-77
2023/02/24 09:34:02;;;;;;;1.90;1.90;;;;;;;;;;6184729;28;20599;-79
2023/02/24 09:37:23;;;;;;;2.20;2.20;;;;;;;;;;6184602;28;20316;-79
2023/02/24 09:40:47;;;;;;;2.00;1.90;;;;;;;;;;6183390;28;20300;-77
2023/02/24 09:43:58;;;;;;;3.10;2.90;;;;;;;;;;6184435;28;20321;-77
2023/02/24 09:47:09;;;;;;;3.00;2.40;;;;;;;;;;6183235;28;20304;-78
2023/02/24 09:50:21;;;;;;;3.17;1.67;;;;;;;;;;6184269;28;20293;-77
2023/02/24 09:53:52;;;;;;;2.40;2.30;;;;;;;;;;6184578;28;20297;-78
2023/02/24 09:57:09;;;;;;;2.90;2.77;;;;;;;;;;6184889;28;20573;-76
2023/02/24 10:00:32;;;;;;;2.13;1.70;;;;;;;;;;6185814;28;20567;-77
2023/02/24 10:03:41;;;;;;;1.60;1.60;;;;;;;;;;6188524;28;20571;-77
2023/02/24 10:06:49;;;;;;;2.60;2.13;;;;;;;;;;6189238;28;20386;-79
2023/02/24 10:10:09;;;;;;;1.87;1.87;;;;;;;;;;6178053;28;20630;-77
2023/02/24 10:13:29;;;;;;;4.00;1.73;;;;;;;;;;6188649;28;20327;-78
2023/02/24 10:16:43;;;;;;;2.97;2.87;;;;;;;;;;6185744;28;20302;-77
2023/02/24 10:19:55;;;;;;;2.70;2.60;;;;;;;;;;6188271;28;20301;-77
2023/02/24 10:23:08;;;;;;;2.17;2.17;;;;;;;;;;6188858;28;20576;-77
2023/02/24 10:26:30;;;;;;;2.37;2.27;;;;;;;;;;6187468;28;20565;-77
2023/02/24 10:29:54;;;;;;;3.10;3.00;;;;;;;;;;6187962;28;20565;-78
2023/02/24 10:33:01;;;;;;;2.50;2.30;;;;;;;;;;6188643;28;20334;-77
2023/02/24 10:36:09;;;;;;;5.40;3.13;;;;;;;;;;6203331;28;20306;-79
2023/02/24 10:39:19;;;;;;;1.90;1.80;;;;;;;;;;6203302;28;20397;-78
2023/02/24 10:42:26;;;;;;;2.63;2.23;;;;;;;;;;6186813;28;20304;-78
2023/02/24 10:45:42;;;;;;;1.20;1.20;;;;;;;;;;6187807;28;20301;-79
2023/02/24 10:48:59;;;;;;;1.50;1.40;;;;;;;;;;6187354;28;20307;-78
2023/02/24 10:52:08;;;;;;;1.60;1.50;;;;;;;;;;6188545;28;20343;-78
2023/02/24 10:55:27;;;;;;;1.40;1.40;;;;;;;;;;6187344;28;20310;-77
2023/02/24 10:58:48;;;;;;;3.17;2.87;;;;;;;;;;6186835;28;20302;-79
2023/02/24 11:01:59;;;;;;;2.70;2.60;;;;;;;;;;6202815;28;20590;-78
2023/02/24 11:05:25;;;;;;;1.63;1.30;;;;;;;;;;6201264;28;20331;-78
2023/02/24 11:08:53;;;;;;;1.43;1.17;;;;;;;;;;6185441;28;20434;-79
2023/02/24 11:18:55;;;;;;;2.70;2.57;;;;;;;;;;6201635;28;20297;-78
2023/02/24 11:22:03;;;;;;;4.50;2.53;;;;;;;;;;6187864;28;20291;-78
2023/02/24 11:25:17;;;;;;;3.43;2.00;;;;;;;;;;6186780;28;20310;-78
2023/02/24 11:28:32;;;;;;;6.47;4.77;;;;;;;;;;6159773;28;20288;-78
2023/02/24 11:31:52;;;;;;;2.33;1.90;;;;;;;;;;6184884;28;20280;-79
2023/02/24 11:35:05;;;;;;;3.77;2.20;;;;;;;;;;6184957;28;20316;-77
2023/02/24 11:38:26;;;;;;;1.50;1.50;;;;;;;;;;6187222;28;20540;-78
2023/02/24 11:41:33;;;;;;;1.70;1.57;;;;;;;;;;6186318;28;20593;-77
2023/02/24 11:44:50;;;;;;;1.90;1.60;;;;;;;;;;6185166;28;20338;-77
2023/02/24 11:48:00;;;;;;;2.57;1.20;;;;;;;;;;6186364;28;20309;-79
2023/02/24 11:51:12;;;;;;;1.20;1.10;;;;;;;;;;6186238;28;20291;-77
2023/02/24 11:54:17;;;;;;;1.50;1.40;;;;;;;;;;6185996;28;20470;-77
2023/02/24 11:57:27;;;;;;;1.70;1.70;;;;;;;;;;6186728;28;20386;-77
2023/02/24 12:00:36;;;;;;;1.30;1.30;;;;;;;;;;6184939;28;20590;-78
2023/02/24 12:03:49;;;;;;;0.90;0.90;;;;;;;;;;6185312;28;20318;-78
2023/02/24 12:06:59;;;;;;;1.20;1.20;;;;;;;;;;6184825;28;20365;-79
2023/02/24 12:10:08;;;;;;;1.27;1.27;;;;;;;;;;6186131;28;20289;-77
2023/02/24 12:13:28;;;;;;;1.87;1.23;;;;;;;;;;6185156;28;20270;-78
2023/02/24 12:16:39;;;;;;;0.83;0.83;;;;;;;;;;6184800;28;20290;-78
2023/02/24 12:19:53;;;;;;;1.00;1.00;;;;;;;;;;6185061;28;20312;-79
2023/02/24 12:23:06;;;;;;;1.33;1.27;;;;;;;;;;6184074;28;20562;-77
2023/02/24 12:26:19;;;;;;;2.90;1.10;;;;;;;;;;6182036;28;20294;-78
2023/02/24 12:29:42;;;;;;;1.40;1.30;;;;;;;;;;6185370;28;20588;-78
2023/02/24 12:33:00;;;;;;;2.10;1.30;;;;;;;;;;6184885;28;20329;-78
2023/02/24 12:36:14;;;;;;;1.27;1.23;;;;;;;;;;6184165;28;20463;-78
2023/02/24 12:39:22;;;;;;;1.30;1.30;;;;;;;;;;6184725;28;20305;-77
2023/02/24 12:42:33;;;;;;;1.60;1.47;;;;;;;;;;6184427;28;20304;-79
2023/02/24 12:45:47;;;;;;;1.90;1.80;;;;;;;;;;6184226;28;20308;-78
2023/02/24 12:49:11;;;;;;;1.70;1.60;;;;;;;;;;6184904;28;20313;-78
2023/02/24 12:52:24;;;;;;;1.63;1.53;;;;;;;;;;6175174;28;20297;-78
2023/02/24 12:55:40;;;;;;;7.60;1.83;;;;;;;;;;6158440;28;20316;-78
2023/02/24 12:58:48;;;;;;;1.43;1.33;;;;;;;;;;6184134;28;20288;-79
2023/02/24 13:01:59;;;;;;;2.77;1.97;;;;;;;;;;6185969;28;20300;-77
2023/02/24 13:05:09;;;;;;;1.30;1.30;;;;;;;;;;6199466;28;20300;-78
2023/02/24 13:08:22;;;;;;;1.63;1.30;;;;;;;;;;6185356;28;20296;-77
2023/02/24 13:11:39;;;;;;;2.13;1.33;;;;;;;;;;6184514;28;20294;-78
2023/02/24 13:14:48;;;;;;;1.97;1.87;;;;;;;;;;6184422;28;20304;-77
2023/02/24 13:17:54;;;;;;;1.33;1.20;;;;;;;;;;6183573;28;20297;-78
2023/02/24 13:21:05;;;;;;;2.97;1.50;;;;;;;;;;6182788;28;20340;-79
2023/02/24 13:24:21;;;;;;;3.33;1.20;;;;;;;;;;6184523;28;20296;-77
2023/02/24 13:27:34;;;;;;;1.40;1.30;;;;;;;;;;6168521;28;20300;-78
2023/02/24 13:30:42;;;;;;;3.40;3.27;;;;;;;;;;6184529;28;20475;-77
2023/02/24 13:33:47;;;;;;;2.30;1.77;;;;;;;;;;6185226;28;20451;-77
2023/02/24 13:36:52;;;;;;;2.20;2.10;;;;;;;;;;6188452;28;20301;-78
2023/02/24 13:39:58;;;;;;;2.10;2.00;;;;;;;;;;6203930;28;20292;-77
2023/02/24 13:43:05;;;;;;;1.63;1.53;;;;;;;;;;6189584;28;20292;-78
2023/02/24 13:46:18;;;;;;;1.33;1.33;;;;;;;;;;6188122;28;20578;-77
2023/02/24 13:49:31;;;;;;;3.13;1.40;;;;;;;;;;6187124;28;20297;-77
2023/02/24 13:52:52;;;;;;;1.60;1.30;;;;;;;;;;6188913;28;20280;-78
2023/02/24 13:56:25;;;;;;;1.20;1.17;;;;;;;;;;6203344;28;20582;-77
2023/02/24 13:59:59;;;;;;;3.53;1.53;;;;;;;;;;6189571;28;20293;-78
2023/02/24 14:03:11;;;;;;;3.13;1.23;;;;;;;;;;6177107;28;20298;-78
2023/02/24 14:06:25;;;;;;;2.33;1.57;;;;;;;;;;6186768;28;20317;-78
2023/02/24 14:09:33;;;;;;;2.10;1.50;;;;;;;;;;6188364;28;20309;-75
2023/02/24 14:12:43;;;;;;;1.63;1.23;;;;;;;;;;6188810;28;20294;-77
2023/02/24 14:15:50;;;;;;;1.60;1.40;;;;;;;;;;6188582;28;20533;-77
2023/02/24 14:18:56;;;;;;;2.53;1.50;;;;;;;;;;6186593;28;20542;-78
2023/02/24 14:22:14;;;;;;;1.60;1.50;;;;;;;;;;6188005;28;20298;-78
2023/02/24 14:25:20;;;;;;;1.50;1.40;;;;;;;;;;6186706;28;20486;-77
2023/02/24 14:28:30;;;;;;;1.80;1.20;;;;;;;;;;6186617;28;20460;-79
2023/02/24 14:31:36;;;;;;;2.43;1.17;;;;;;;;;;6188494;28;20539;-77
2023/02/24 14:34:46;;;;;;;4.10;1.50;;;;;;;;;;6188060;28;20286;-77
2023/02/24 14:37:52;;;;;;;5.40;1.33;;;;;;;;;;6188392;28;20299;-77
2023/02/24 14:40:57;;;;;;;1.70;1.03;;;;;;;;;;6188076;28;20292;-79
2023/02/24 14:44:09;;;;;;;2.87;1.40;;;;;;;;;;6187445;28;20300;-79
2023/02/24 14:47:21;;;;;;;1.33;1.33;;;;;;;;;;6187896;28;20309;-76
2023/02/24 14:50:29;;;;;;;2.03;1.33;;;;;;;;;;6186027;28;20319;-76
2023/02/24 14:53:37;;;;;;;1.50;1.50;;;;;;;;;;6186216;28;20297;-77
2023/02/24 14:56:42;;;;;;;3.70;1.40;;;;;;;;;;6188087;28;20303;-77
2023/02/24 14:59:54;;;;;;;1.87;1.37;;;;;;;;;;6185592;28;20299;-77
2023/02/24 15:03:05;;;;;;;1.10;1.10;;;;;;;;;;6187643;28;20303;-77
2023/02/24 15:06:15;;;;;;;2.20;1.20;;;;;;;;;;6193474;28;20352;-77
2023/02/24 15:09:24;;;;;;;1.00;1.00;;;;;;;;;;6162499;28;20298;-77
2023/02/24 15:12:31;;;;;;;1.70;1.20;;;;;;;;;;6170264;28;20352;-78
2023/02/24 15:15:38;;;;;;;1.73;1.50;;;;;;;;;;6163503;28;20583;-79
2023/02/24 15:18:49;;;;;;;2.60;2.40;;;;;;;;;;6162835;28;20294;-79
2023/02/24 15:21:55;;;;;;;2.50;1.90;;;;;;;;;;6163767;28;20305;-77
2023/02/24 15:25:16;;;;;;;1.90;1.90;;;;;;;;;;6162348;28;20290;-78
2023/02/24 15:28:26;;;;;;;2.30;2.20;;;;;;;;;;6162492;28;20270;-77
2023/02/24 15:31:31;;;;;;;1.70;1.60;;;;;;;;;;6162413;28;20308;-77
2023/02/24 15:34:40;;;;;;;2.40;2.00;;;;;;;;;;6161136;28;20315;-79
2023/02/24 15:37:46;;;;;;;1.37;1.37;;;;;;;;;;6163122;28;20299;-79
2023/02/24 15:40:52;;;;;;;1.87;1.77;;;;;;;;;;6160734;28;20305;-78
2023/02/24 15:43:57;;;;;;;2.73;2.40;;;;;;;;;;6163348;28;20294;-78
2023/02/24 15:47:21;;;;;;;1.57;1.47;;;;;;;;;;6162600;28;20575;-79
2023/02/24 15:50:30;;;;;;;1.70;1.60;;;;;;;;;;6177062;28;20476;-77
2023/02/24 15:53:35;;;;;;;1.83;1.53;;;;;;;;;;6162673;28;20316;-80
2023/02/24 15:56:41;;;;;;;1.37;1.37;;;;;;;;;;6162788;28;20462;-78
2023/02/24 15:59:49;;;;;;;2.67;1.30;;;;;;;;;;6144738;29;20298;-78
2023/02/24 16:02:58;;;;;;;3.73;1.57;;;;;;;;;;6164251;28;20298;-78
2023/02/24 16:06:05;;;;;;;1.73;1.50;;;;;;;;;;6176318;28;20582;-78
2023/02/24 16:09:13;;;;;;;1.20;1.17;;;;;;;;;;6159385;28;20494;-78
2023/02/24 16:12:20;;;;;;;1.70;1.23;;;;;;;;;;6177017;28;20301;-78
2023/02/24 16:15:28;;;;;;;3.40;1.57;;;;;;;;;;6185781;28;20370;-79
2023/02/24 16:18:34;;;;;;;5.30;4.80;;;;;;;;;;6185379;28;20408;-77
2023/02/24 16:21:40;;;;;;;2.67;2.60;;;;;;;;;;6184683;28;20589;-77
2023/02/24 16:24:45;;;;;;;2.33;2.33;;;;;;;;;;6185689;28;20310;-79
2023/02/24 16:27:56;;;;;;;2.23;2.13;;;;;;;;;;6186115;28;20592;-77
2023/02/24 16:31:01;;;;;;;1.40;1.40;;;;;;;;;;6185564;28;20300;-76
2023/02/24 16:34:07;;;;;;;2.33;1.27;;;;;;;;;;6184988;28;20296;-78
2023/02/24 16:37:18;;;;;;;1.70;1.70;;;;;;;;;;6185848;28;20293;-77
2023/02/24 16:40:26;;;;;;;2.10;2.00;;;;;;;;;;6184544;28;20304;-78
2023/02/24 16:43:33;;;;;;;2.57;1.60;;;;;;;;;;6184697;28;20274;-77
2023/02/24 16:46:46;;;;;;;1.93;1.70;;;;;;;;;;6184599;28;20293;-77
2023/02/24 16:49:56;;;;;;;1.30;1.27;;;;;;;;;;6185075;28;20309;-77
2023/02/24 16:53:03;;;;;;;5.10;1.23;;;;;;;;;;6185235;28;20316;-76
2023/02/24 16:56:14;;;;;;;1.90;1.40;;;;;;;;;;6183457;28;20520;-76
2023/02/24 16:59:19;;;;;;;2.77;1.20;;;;;;;;;;6184486;28;20301;-78
2023/02/24 17:02:25;;;;;;;1.53;1.30;;;;;;;;;;6185207;28;20314;-77
2023/02/24 17:05:31;;;;;;;1.97;1.90;;;;;;;;;;6184528;28;20305;-77
2023/02/24 17:08:38;;;;;;;2.87;2.00;;;;;;;;;;6185327;28;20465;-77
2023/02/24 17:11:48;;;;;;;2.33;2.23;;;;;;;;;;6188925;28;20289;-77
2023/02/24 17:14:54;;;;;;;3.50;1.53;;;;;;;;;;6188328;28;20305;-76
2023/02/24 17:17:59;;;;;;;3.20;2.80;;;;;;;;;;6190597;28;20301;-78
2023/02/24 17:21:05;;;;;;;1.97;1.67;;;;;;;;;;6188431;28;20614;-77
2023/02/24 17:24:16;;;;;;;2.63;1.87;;;;;;;;;;6189676;28;20293;-78
2023/02/24 17:27:22;;;;;;;2.43;1.90;;;;;;;;;;6189947;28;20306;-78
2023/02/24 17:30:29;;;;;;;2.17;2.10;;;;;;;;;;6189320;28;20297;-78
2023/02/24 17:33:34;;;;;;;4.73;4.27;;;;;;;;;;6189471;28;20293;-77
2023/02/24 17:36:40;;;;;;;1.77;1.77;;;;;;;;;;6189829;28;20290;-76
2023/02/24 17:39:47;;;;;;;2.40;2.13;;;;;;;;;;6188873;28;20296;-78
2023/02/24 17:42:54;;;;;;;3.17;1.67;;;;;;;;;;6204397;28;20411;-79
2023/02/24 17:46:02;;;;;;;2.20;1.50;;;;;;;;;;6203859;28;20293;-78
2023/02/24 17:49:11;;;;;;;1.97;1.77;;;;;;;;;;6189083;28;20458;-77
2023/02/24 17:52:16;;;;;;;4.30;2.20;;;;;;;;;;6189889;28;20298;-76
2023/02/24 17:55:23;;;;;;;2.37;2.07;;;;;;;;;;6188134;28;20286;-78
2023/02/24 17:58:28;;;;;;;2.77;1.80;;;;;;;;;;6189176;28;20300;-78
2023/02/24 18:01:33;;;;;;;2.03;1.33;;;;;;;;;;6189778;28;20582;-78
2023/02/24 18:04:40;;;;;;;1.30;1.30;;;;;;;;;;6203337;28;20301;-81
2023/02/24 18:07:54;;;;;;;2.50;1.53;;;;;;;;;;6189310;28;20406;-80
2023/02/24 18:11:01;;;;;;;1.17;1.17;;;;;;;;;;6189160;28;20597;-79
2023/02/24 18:14:06;;;;;;;1.40;1.40;;;;;;;;;;6160391;28;20590;-78
2023/02/24 18:17:14;;;;;;;1.10;1.10;;;;;;;;;;6174150;28;20700;-77
2023/02/24 18:20:19;;;;;;;1.60;1.50;;;;;;;;;;6163070;28;20303;-79
2023/02/24 18:23:25;;;;;;;1.40;1.40;;;;;;;;;;6163054;28;20305;-78
2023/02/24 18:26:35;;;;;;;2.47;2.37;;;;;;;;;;6164988;28;20302;-78
2023/02/24 18:29:42;;;;;;;2.33;2.13;;;;;;;;;;6147769;28;20296;-79
2023/02/24 18:32:50;;;;;;;3.37;2.60;;;;;;;;;;6165138;28;20301;-79
2023/02/24 18:35:59;;;;;;;1.73;1.63;;;;;;;;;;6164545;28;20296;-78
2023/02/24 18:39:05;;;;;;;2.10;1.53;;;;;;;;;;6163092;28;20305;-78
2023/02/24 18:42:13;;;;;;;2.13;1.93;;;;;;;;;;6163554;29;20448;-78
2023/02/24 18:45:18;;;;;;;2.07;2.07;;;;;;;;;;6163993;28;20530;-77
2023/02/24 18:48:23;;;;;;;3.63;2.27;;;;;;;;;;6164166;28;20297;-78
2023/02/24 18:51:31;;;;;;;2.13;2.13;;;;;;;;;;6162253;29;20309;-76
2023/02/24 18:54:37;;;;;;;3.37;2.70;;;;;;;;;;6163190;28;20297;-78
2023/02/24 18:57:44;;;;;;;1.80;1.70;;;;;;;;;;6162988;29;20365;-80
2023/02/24 19:00:49;;;;;;;1.80;1.80;;;;;;;;;;6163949;28;20303;-78
2023/02/24 19:03:55;;;;;;;1.97;1.87;;;;;;;;;;6172150;28;20367;-78
2023/02/24 19:07:03;;;;;;;2.10;1.80;;;;;;;;;;6187771;28;20309;-78
2023/02/24 19:10:09;;;;;;;3.93;1.83;;;;;;;;;;6187233;28;20312;-79
2023/02/24 19:13:16;;;;;;;3.30;2.17;;;;;;;;;;6187804;28;20301;-79